Terminal Aerodrome Forecast
Issued by NWS Flagstaff, AZ

Current Version | Previous Version | Text Only | Print | Product List | Glossary On
Versions: 1 2 3 4 5 6 7 8 9 10 11 12 13 14 15 16 17 18
000
FTUS45 KFGZ 040917 AAA
TAFFLG
TAF AMD
KFLG 040917Z 0409/0506 VRB05KT P6SM VCSH SCT080 OVC100
      TEMPO 0409/0411 5SM -SHRA BR FEW040 BKN060
     FM041200 VRB05KT P6SM SCT060 BKN080
     FM041800 24009KT P6SM SCT050 BKN100 PROB30 0420/0424 5SM TSRA
      BKN050CB
     FM050300 VRB03KT P6SM FEW060 SCT110=

USA.gov is the U.S. government's official web portal to all federal, state and local government web resources and services.